createdAt,value
2023-03-14T00:00:37.371Z,100111.35
2023-03-14T00:01:41.576Z,100112.58
2023-03-14T00:02:44.353Z,100118.41
2023-03-14T00:03:47.881Z,100116.39
2023-03-14T00:04:54.459Z,100113.92
2023-03-14T00:05:57.709Z,100113.70
2023-03-14T00:07:05.188Z,100115.34
2023-03-14T00:08:08.252Z,100114.16
2023-03-14T00:09:11.469Z,100108.17
2023-03-14T00:10:15.581Z,100107.52
2023-03-14T00:11:19.712Z,100108.57
2023-03-14T00:12:22.966Z,100114.26
2023-03-14T00:13:26.016Z,100100.38
2023-03-14T00:14:28.739Z,100103.80
2023-03-14T00:15:33.430Z,100109.42
2023-03-14T00:16:38.620Z,100103.83
2023-03-14T00:17:47.154Z,100106.52
2023-03-14T00:18:48.991Z,100105.02
2023-03-14T00:19:53.109Z,100110.80
2023-03-14T00:20:58.185Z,100111.22
2023-03-14T00:22:01.487Z,100109.44
2023-03-14T00:23:04.763Z,100103.45
2023-03-14T00:24:08.618Z,100096.98
2023-03-14T00:25:12.449Z,100102.97
2023-03-14T00:26:18.685Z,100096.48
2023-03-14T00:27:21.961Z,100100.28
2023-03-14T00:28:25.080Z,100099.40
2023-03-14T00:29:29.391Z,100101.53
2023-03-14T00:30:35.538Z,100098.56
2023-03-14T00:31:41.094Z,100094.42
2023-03-14T00:32:46.066Z,100091.93
2023-03-14T00:33:49.023Z,100088.04
2023-03-14T00:34:52.336Z,100091.45
2023-03-14T00:35:59.373Z,100087.91
2023-03-14T00:37:05.354Z,100086.20
2023-03-14T00:38:08.584Z,100075.73
2023-03-14T00:39:10.850Z,100081.34
2023-03-14T00:40:16.072Z,100077.09
2023-03-14T00:41:23.340Z,100083.63
2023-03-14T00:42:25.862Z,100075.22
2023-03-14T00:43:29.129Z,100080.55
2023-03-14T00:44:34.717Z,100065.27
2023-03-14T00:45:37.414Z,100082.20
2023-03-14T00:46:40.895Z,100079.86
2023-03-14T00:47:46.185Z,100071.12
2023-03-14T00:48:50.018Z,100080.43
2023-03-14T00:49:53.633Z,100073.00
2023-03-14T00:50:57.847Z,100063.99
2023-03-14T00:52:00.399Z,100071.52
2023-03-14T00:53:03.704Z,100072.08
2023-03-14T00:54:07.020Z,100061.86
2023-03-14T00:55:10.476Z,100069.08
2023-03-14T00:56:16.198Z,100062.61
2023-03-14T00:57:19.539Z,100060.14
2023-03-14T00:58:22.695Z,100058.27
2023-03-14T00:59:25.762Z,100062.25
2023-03-14T01:00:28.986Z,100062.78
2023-03-14T01:01:32.472Z,100061.69
2023-03-14T01:02:35.311Z,100061.52
2023-03-14T01:03:38.389Z,100051.86
2023-03-14T01:04:40.578Z,100050.52
2023-03-14T01:05:44.392Z,100062.01
2023-03-14T01:06:47.745Z,100056.27
2023-03-14T01:07:50.896Z,100051.43
2023-03-14T01:08:55.594Z,100048.61
2023-03-14T01:10:00.485Z,100050.38
2023-03-14T01:11:08.453Z,100051.73
2023-03-14T01:12:13.362Z,100045.38
2023-03-14T01:13:18.471Z,100048.19
2023-03-14T01:14:21.646Z,100037.37
2023-03-14T01:15:25.195Z,100039.47
2023-03-14T01:16:29.528Z,100036.77
2023-03-14T01:17:31.890Z,100036.94
2023-03-14T01:18:36.787Z,100038.48
2023-03-14T01:19:40.022Z,100039.14
2023-03-14T01:20:43.247Z,100040.55
2023-03-14T01:21:47.400Z,100043.61
2023-03-14T01:22:50.506Z,100035.66
2023-03-14T01:23:55.016Z,100048.55
2023-03-14T01:24:58.230Z,100048.55
2023-03-14T01:26:03.248Z,100054.42
2023-03-14T01:27:06.521Z,100042.80
2023-03-14T01:28:09.258Z,100045.98
2023-03-14T01:29:16.652Z,100034.41
2023-03-14T01:30:20.049Z,100041.31
2023-03-14T01:31:22.731Z,100044.08
2023-03-14T01:32:30.005Z,100035.56
2023-03-14T01:33:33.389Z,100031.42
2023-03-14T01:34:36.878Z,100034.31
2023-03-14T01:35:40.237Z,100037.34
2023-03-14T01:36:43.399Z,100036.75
2023-03-14T01:37:47.959Z,100037.47
2023-03-14T01:38:53.129Z,100043.35
2023-03-14T01:39:56.134Z,100040.66
2023-03-14T01:40:59.670Z,100040.78
2023-03-14T01:42:03.933Z,100031.98
2023-03-14T01:43:09.233Z,100045.91
2023-03-14T01:44:12.344Z,100043.84
2023-03-14T01:45:34.185Z,100051.73
2023-03-14T01:46:39.482Z,100044.20
2023-03-14T01:47:43.715Z,100054.66
2023-03-14T01:48:53.330Z,100050.45
2023-03-14T01:50:02.952Z,100047.88
2023-03-14T01:51:08.218Z,100048.38
2023-03-14T01:52:22.124Z,100049.70
2023-03-14T01:53:25.470Z,100039.38
2023-03-14T01:54:32.851Z,100045.48
2023-03-14T01:55:36.482Z,100048.05
2023-03-14T01:56:40.902Z,100053.08
2023-03-14T01:57:51.678Z,100043.19
2023-03-14T01:58:56.224Z,100035.66
2023-03-14T02:00:00.265Z,100043.84
2023-03-14T02:01:05.967Z,100041.02
2023-03-14T02:02:12.390Z,100048.55
2023-03-14T02:03:18.664Z,100040.42
2023-03-14T02:04:21.847Z,100043.97
2023-03-14T02:05:34.734Z,100033.35
2023-03-14T02:06:51.067Z,100038.30
2023-03-14T02:07:56.174Z,100033.05
2023-03-14T02:09:01.988Z,100036.77
2023-03-14T02:10:07.360Z,100035.92
2023-03-14T02:11:12.186Z,100035.79
2023-03-14T02:12:23.472Z,100040.19
2023-03-14T02:13:28.714Z,100038.77
2023-03-14T02:14:45.642Z,100035.42
2023-03-14T02:16:06.158Z,100033.95
2023-03-14T02:17:22.031Z,100036.70
2023-03-14T02:18:36.037Z,100030.03
2023-03-14T02:20:14.766Z,100028.52
2023-03-14T02:21:32.479Z,100031.02
2023-03-14T02:22:36.373Z,100032.66
2023-03-14T02:23:43.427Z,100039.50
2023-03-14T02:25:05.853Z,100030.77
2023-03-14T02:26:10.228Z,100035.55
2023-03-14T02:27:15.269Z,100035.48
2023-03-14T02:28:20.635Z,100037.66
2023-03-14T02:29:29.843Z,100037.45
2023-03-14T02:30:38.263Z,100033.05
2023-03-14T02:31:41.853Z,100035.83
2023-03-14T02:32:47.257Z,100037.31
2023-03-14T02:33:52.472Z,100035.04
2023-03-14T02:34:57.027Z,100036.94
2023-03-14T02:36:05.562Z,100040.16
2023-03-14T02:37:09.110Z,100040.55
2023-03-14T02:38:14.086Z,100039.02
2023-03-14T02:39:23.415Z,100048.49
2023-03-14T02:40:25.974Z,100054.34
2023-03-14T02:41:30.333Z,100046.05
2023-03-14T02:42:35.423Z,100045.92
2023-03-14T02:43:39.312Z,100049.22
2023-03-14T02:45:03.837Z,100054.03
2023-03-14T02:46:07.284Z,100050.00
2023-03-14T02:47:09.767Z,100055.00
2023-03-14T02:48:15.774Z,100057.02
2023-03-14T02:49:19.366Z,100059.47
2023-03-14T02:50:23.805Z,100059.19
2023-03-14T02:51:28.746Z,100054.80
2023-03-14T02:52:32.317Z,100065.36
2023-03-14T02:53:36.509Z,100060.28
2023-03-14T02:54:41.408Z,100053.81
2023-03-14T02:55:47.878Z,100059.64
2023-03-14T02:56:51.149Z,100055.04
2023-03-14T02:57:57.904Z,100055.44
2023-03-14T02:59:02.134Z,100055.65
2023-03-14T03:00:15.282Z,100052.75
2023-03-14T03:01:22.094Z,100044.99
2023-03-14T03:02:24.763Z,100053.02
2023-03-14T03:03:34.177Z,100066.09
2023-03-14T03:04:37.587Z,100062.73
2023-03-14T03:05:40.811Z,100057.60
2023-03-14T03:06:44.581Z,100056.02
2023-03-14T03:07:49.553Z,100050.88
2023-03-14T03:08:53.788Z,100049.84
2023-03-14T03:09:56.577Z,100061.08
2023-03-14T03:10:58.729Z,100070.12
2023-03-14T03:12:03.558Z,100068.63
2023-03-14T03:13:07.020Z,100066.78
2023-03-14T03:14:10.443Z,100058.70
2023-03-14T03:15:14.571Z,100061.38
2023-03-14T03:16:17.884Z,100063.37
2023-03-14T03:17:21.084Z,100066.23
2023-03-14T03:18:23.635Z,100055.43
2023-03-14T03:19:27.224Z,100056.08
2023-03-14T03:20:30.504Z,100055.43
2023-03-14T03:21:34.308Z,100065.20
2023-03-14T03:22:39.532Z,100051.89
2023-03-14T03:23:42.822Z,100064.45
2023-03-14T03:24:46.265Z,100056.00
2023-03-14T03:25:54.631Z,100061.95
2023-03-14T03:27:00.621Z,100062.75
2023-03-14T03:28:04.820Z,100060.92
2023-03-14T03:29:08.711Z,100042.60
2023-03-14T03:30:12.627Z,100056.91
2023-03-14T03:31:17.023Z,100055.55
2023-03-14T03:32:21.170Z,100062.28
2023-03-14T03:33:25.176Z,100059.89
2023-03-14T03:34:28.463Z,100059.89
2023-03-14T03:35:31.943Z,100050.57
2023-03-14T03:36:34.464Z,100047.50
2023-03-14T03:37:37.108Z,100050.02
2023-03-14T03:38:41.781Z,100057.61
2023-03-14T03:39:46.076Z,100053.22
2023-03-14T03:40:49.555Z,100047.45
2023-03-14T03:41:54.483Z,100056.11
2023-03-14T03:42:57.577Z,100051.95
2023-03-14T03:44:01.127Z,100049.39
2023-03-14T03:45:04.568Z,100044.94
2023-03-14T03:46:07.736Z,100053.72
2023-03-14T03:47:11.176Z,100054.70
2023-03-14T03:48:15.807Z,100050.19
2023-03-14T03:49:22.036Z,100042.81
2023-03-14T03:50:26.369Z,100049.95
2023-03-14T03:51:29.789Z,100049.83
2023-03-14T03:52:33.085Z,100044.35
2023-03-14T03:53:36.898Z,100049.39
2023-03-14T03:54:43.949Z,100056.17
2023-03-14T03:55:47.605Z,100051.95
2023-03-14T03:56:51.034Z,100053.48
2023-03-14T03:57:54.060Z,100047.50
2023-03-14T03:58:56.444Z,100049.51
2023-03-14T04:00:02.082Z,100052.75
2023-03-14T04:01:09.150Z,100053.98
2023-03-14T04:02:12.708Z,100047.73
2023-03-14T04:03:16.171Z,100042.81
2023-03-14T04:04:19.738Z,100054.22
2023-03-14T04:06:37.030Z,100041.34
2023-03-14T04:07:41.051Z,100047.09
2023-03-14T04:08:45.761Z,100056.34
2023-03-14T04:09:53.696Z,100045.91
2023-03-14T04:10:59.156Z,100042.14
2023-03-14T04:12:16.412Z,100049.95
2023-03-14T04:13:39.486Z,100051.36
2023-03-14T04:14:43.215Z,100041.52
2023-03-14T04:15:52.784Z,100054.52
2023-03-14T04:17:00.792Z,100053.67
2023-03-14T04:18:05.739Z,100047.68
2023-03-14T04:19:09.542Z,100048.69
2023-03-14T04:20:12.933Z,100049.51
2023-03-14T04:21:18.434Z,100054.70
2023-03-14T04:22:24.873Z,100046.65
2023-03-14T04:23:30.037Z,100049.09
2023-03-14T04:24:34.066Z,100051.31
2023-03-14T04:25:37.571Z,100045.00
2023-03-14T04:26:42.432Z,100046.06
2023-03-14T04:27:51.042Z,100058.50
2023-03-14T04:28:59.895Z,100055.61
2023-03-14T04:30:03.607Z,100050.19
2023-03-14T04:31:24.587Z,100061.03
2023-03-14T04:32:30.764Z,100039.19
2023-03-14T04:33:35.334Z,100053.84
2023-03-14T04:34:39.895Z,100045.73
2023-03-14T04:35:42.889Z,100046.70
2023-03-14T04:36:49.384Z,100040.19
2023-03-14T04:37:53.919Z,100036.99
2023-03-14T04:38:58.693Z,100040.26
2023-03-14T04:40:02.413Z,100047.34
2023-03-14T04:41:07.373Z,100043.95
2023-03-14T04:42:11.406Z,100043.55
2023-03-14T04:43:16.191Z,100040.53
2023-03-14T04:44:21.542Z,100047.86
2023-03-14T04:45:27.551Z,100040.25
2023-03-14T04:46:32.927Z,100042.18
2023-03-14T04:47:40.448Z,100041.84
2023-03-14T04:48:44.535Z,100031.22
2023-03-14T04:49:48.246Z,100029.11
2023-03-14T04:50:53.119Z,100028.58
2023-03-14T04:51:56.834Z,100039.69
2023-03-14T04:53:02.117Z,100032.78
2023-03-14T04:54:05.216Z,100046.91
2023-03-14T04:55:10.453Z,100052.34
2023-03-14T04:56:14.596Z,100047.67
2023-03-14T04:57:22.099Z,100047.58
2023-03-14T04:58:25.895Z,100059.45
2023-03-14T04:59:34.426Z,100062.06
2023-03-14T05:00:40.503Z,100058.23
2023-03-14T05:01:49.111Z,100066.04
2023-03-14T05:04:21.159Z,100061.66
2023-03-14T05:05:35.636Z,100068.36
2023-03-14T05:06:40.462Z,100059.27
2023-03-14T05:07:48.572Z,100064.59
2023-03-14T05:09:10.579Z,100055.03
2023-03-14T05:10:19.594Z,100044.72
2023-03-14T05:11:35.644Z,100040.45
2023-03-14T05:12:50.745Z,100035.94
2023-03-14T05:14:13.984Z,100029.71
2023-03-14T05:15:21.981Z,100036.84
2023-03-14T05:16:35.635Z,100025.54
2023-03-14T05:17:41.426Z,100025.06
2023-03-14T05:19:04.082Z,100025.53
2023-03-14T05:20:13.279Z,100022.06
2023-03-14T05:21:31.625Z,100031.58
2023-03-14T05:22:43.278Z,100018.63
2023-03-14T05:24:05.790Z,100018.65
2023-03-14T05:25:11.903Z,100015.43
2023-03-14T05:26:19.356Z,100025.53
2023-03-14T05:27:31.355Z,100021.13
2023-03-14T05:28:42.882Z,100017.16
2023-03-14T05:29:52.328Z,100023.03
2023-03-14T05:30:57.853Z,100033.06
2023-03-14T05:32:06.464Z,100034.38
2023-03-14T05:33:23.618Z,100032.11
2023-03-14T05:34:28.191Z,100031.45
2023-03-14T05:35:33.613Z,100019.55
2023-03-14T05:36:53.414Z,100027.81
2023-03-14T05:38:07.434Z,100032.23
2023-03-14T05:39:15.857Z,100026.65
2023-03-14T05:40:22.286Z,100028.28
2023-03-14T05:41:42.821Z,100020.98
2023-03-14T05:42:49.979Z,100023.08
2023-03-14T05:44:11.493Z,100026.64
2023-03-14T05:45:38.373Z,100019.14
2023-03-14T05:47:02.614Z,100023.70
2023-03-14T05:48:26.567Z,100023.03
2023-03-14T05:50:45.850Z,100023.10
2023-03-14T05:52:00.522Z,100034.29
2023-03-14T05:53:17.297Z,100032.95
2023-03-14T05:54:23.419Z,100042.47
2023-03-14T05:55:32.158Z,100034.83
2023-03-14T05:56:55.520Z,100032.43
2023-03-14T05:58:04.741Z,100026.26
2023-03-14T05:59:16.952Z,100026.95
2023-03-14T06:00:31.283Z,100028.66
2023-03-14T06:01:37.231Z,100044.70
2023-03-14T06:02:54.504Z,100044.72
2023-03-14T06:03:59.866Z,100044.36
2023-03-14T06:05:03.297Z,100038.62
2023-03-14T06:06:07.297Z,100037.98
2023-03-14T06:07:13.619Z,100035.84
2023-03-14T06:08:18.017Z,100051.88
2023-03-14T06:09:23.897Z,100056.70
2023-03-14T06:10:27.067Z,100047.92
2023-03-14T06:11:30.487Z,100049.79
2023-03-14T06:12:34.172Z,100058.48
2023-03-14T06:13:37.831Z,100058.39
2023-03-14T06:14:41.704Z,100051.55
2023-03-14T06:15:47.614Z,100057.80
2023-03-14T06:16:52.313Z,100061.75
2023-03-14T06:18:01.929Z,100059.54
2023-03-14T06:19:05.676Z,100057.89
2023-03-14T06:20:10.828Z,100071.01
2023-03-14T06:21:14.641Z,100062.92
2023-03-14T06:22:18.031Z,100064.57
2023-03-14T06:23:23.747Z,100072.28
2023-03-14T06:24:27.348Z,100081.15
2023-03-14T06:25:30.540Z,100084.20
2023-03-14T06:26:35.506Z,100097.77
2023-03-14T06:27:38.796Z,100092.45
2023-03-14T06:28:43.545Z,100098.04
2023-03-14T06:29:47.483Z,100095.34
2023-03-14T06:30:51.721Z,100081.58
2023-03-14T06:31:54.210Z,100087.09
2023-03-14T06:32:57.400Z,100078.99
2023-03-14T06:34:00.807Z,100079.09
2023-03-14T06:35:06.683Z,100078.23
2023-03-14T06:36:13.562Z,100071.83
2023-03-14T06:37:21.065Z,100080.55
2023-03-14T06:38:24.573Z,100083.96
2023-03-14T06:39:32.519Z,100078.84
2023-03-14T06:40:37.790Z,100087.25
2023-03-14T06:41:42.140Z,100089.40
2023-03-14T06:42:48.134Z,100086.68
2023-03-14T06:43:55.270Z,100090.03
2023-03-14T06:45:01.094Z,100082.84
2023-03-14T06:46:05.847Z,100084.13
2023-03-14T06:47:09.587Z,100083.94
2023-03-14T06:48:14.433Z,100076.40
2023-03-14T06:49:22.734Z,100080.42
2023-03-14T06:50:28.958Z,100076.68
2023-03-14T06:51:33.640Z,100082.53
2023-03-14T06:52:42.256Z,100083.11
2023-03-14T06:53:46.378Z,100078.64
2023-03-14T06:54:51.344Z,100073.28
2023-03-14T06:55:56.625Z,100079.51
2023-03-14T06:57:03.472Z,100094.31
2023-03-14T06:58:09.374Z,100090.31
2023-03-14T06:59:14.669Z,100088.16
2023-03-14T07:00:21.403Z,100078.41
2023-03-14T07:01:27.255Z,100093.79
2023-03-14T07:02:42.292Z,100068.94
2023-03-14T07:03:38.110Z,100079.42
2023-03-14T07:04:44.128Z,100076.77
2023-03-14T07:05:47.809Z,100087.50
2023-03-14T07:06:51.414Z,100094.34
2023-03-14T07:07:54.117Z,100102.13
2023-03-14T07:08:58.321Z,100114.48
2023-03-14T07:10:01.092Z,100109.66
2023-03-14T07:11:07.867Z,100113.69
2023-03-14T07:12:11.772Z,100106.58
2023-03-14T07:13:18.298Z,100100.30
2023-03-14T07:14:35.689Z,100097.05
2023-03-14T07:15:40.952Z,100105.98
2023-03-14T07:16:47.960Z,100097.67
2023-03-14T07:17:51.581Z,100114.84
2023-03-14T07:18:58.056Z,100105.39
2023-03-14T07:20:06.606Z,100111.78
2023-03-14T07:21:09.766Z,100114.31
2023-03-14T07:22:12.534Z,100108.30
2023-03-14T07:23:15.964Z,100122.75
2023-03-14T07:24:24.481Z,100108.57
2023-03-14T07:25:27.763Z,100101.19
2023-03-14T07:26:31.482Z,100093.05
2023-03-14T07:27:35.094Z,100109.25
2023-03-14T07:28:38.179Z,100095.28
2023-03-14T07:29:42.422Z,100092.75
2023-03-14T07:30:47.912Z,100101.70
2023-03-14T07:31:53.144Z,100089.41
2023-03-14T07:32:57.886Z,100098.66
2023-03-14T07:34:01.768Z,100096.52
2023-03-14T07:35:07.999Z,100088.37
2023-03-14T07:36:13.590Z,100084.95
2023-03-14T07:37:18.856Z,100081.75
2023-03-14T07:38:25.066Z,100098.63
2023-03-14T07:39:47.676Z,100094.65
2023-03-14T07:40:59.885Z,100098.57
2023-03-14T07:42:04.628Z,100091.97
2023-03-14T07:43:10.140Z,100095.23
2023-03-14T07:44:21.345Z,100090.90
2023-03-14T07:45:25.802Z,100075.67
2023-03-14T07:46:29.049Z,100079.59
2023-03-14T07:47:32.902Z,100086.81
2023-03-14T07:48:35.191Z,100085.27
2023-03-14T07:49:38.449Z,100092.27
2023-03-14T07:50:41.537Z,100082.28
2023-03-14T07:51:44.625Z,100068.64
2023-03-14T07:52:47.828Z,100082.22
2023-03-14T07:53:50.289Z,100093.46
2023-03-14T07:54:53.898Z,100090.77
2023-03-14T07:55:57.405Z,100088.37
2023-03-14T07:57:03.194Z,100096.51
2023-03-14T07:58:07.545Z,100087.21
2023-03-14T07:59:10.868Z,100087.11
2023-03-14T08:00:16.143Z,100079.88
2023-03-14T08:01:18.781Z,100096.14
2023-03-14T08:02:25.189Z,100089.91
2023-03-14T08:03:29.707Z,100096.92
2023-03-14T08:04:32.966Z,100097.47
2023-03-14T08:05:38.350Z,100088.39
2023-03-14T08:06:44.475Z,100091.44
2023-03-14T08:07:47.641Z,100085.88
2023-03-14T08:08:51.078Z,100084.02
2023-03-14T08:09:54.164Z,100084.16
2023-03-14T08:10:57.751Z,100084.83
2023-03-14T08:12:01.152Z,100091.91
2023-03-14T08:13:04.333Z,100088.72
2023-03-14T08:14:07.747Z,100086.19
2023-03-14T08:15:11.761Z,100092.13
2023-03-14T08:16:15.145Z,100084.48
2023-03-14T08:17:17.418Z,100080.28
2023-03-14T08:18:20.814Z,100087.38
2023-03-14T08:19:24.248Z,100075.17
2023-03-14T08:20:28.151Z,100082.30
2023-03-14T08:21:31.324Z,100075.34
2023-03-14T08:22:34.523Z,100077.44
2023-03-14T08:23:37.989Z,100073.94
2023-03-14T08:24:42.897Z,100091.06
2023-03-14T08:25:46.392Z,100083.98
2023-03-14T08:26:49.182Z,100086.37
2023-03-14T08:27:52.702Z,100076.57
2023-03-14T08:28:56.082Z,100087.73
2023-03-14T08:30:03.348Z,100077.47
2023-03-14T08:31:07.394Z,100074.84
2023-03-14T08:32:11.046Z,100067.55
2023-03-14T08:33:15.209Z,100070.53
2023-03-14T08:34:19.142Z,100073.73
2023-03-14T08:35:21.421Z,100075.22
2023-03-14T08:36:24.809Z,100064.27
2023-03-14T08:37:28.706Z,100056.19
2023-03-14T08:38:32.859Z,100068.88
2023-03-14T08:39:36.160Z,100069.05
2023-03-14T08:40:38.514Z,100065.93
2023-03-14T08:41:43.384Z,100068.30
2023-03-14T08:42:47.088Z,100059.36
2023-03-14T08:43:50.480Z,100055.13
2023-03-14T08:44:55.374Z,100060.52
2023-03-14T08:45:59.472Z,100058.76
2023-03-14T08:47:03.290Z,100061.03
2023-03-14T08:48:08.872Z,100054.58
2023-03-14T08:49:12.208Z,100064.06
2023-03-14T08:50:16.775Z,100046.05
2023-03-14T08:51:19.388Z,100051.01
2023-03-14T08:52:22.591Z,100049.20
2023-03-14T08:53:28.079Z,100055.38
2023-03-14T08:54:31.259Z,100043.31
2023-03-14T08:55:35.846Z,100043.64
2023-03-14T08:56:40.892Z,100032.09
2023-03-14T08:57:43.237Z,100034.73
2023-03-14T08:58:46.651Z,100034.31
2023-03-14T08:59:49.936Z,100020.22
2023-03-14T09:00:53.502Z,100045.43
2023-03-14T09:01:57.163Z,100024.90
2023-03-14T09:03:00.800Z,100034.87
2023-03-14T09:04:03.183Z,100036.05
2023-03-14T09:05:07.797Z,100020.59
2023-03-14T09:06:12.809Z,100027.73
2023-03-14T09:07:18.031Z,100017.77
2023-03-14T09:08:20.395Z,100021.95
2023-03-14T09:09:24.100Z,100030.50
2023-03-14T09:10:28.232Z,100020.22
2023-03-14T09:11:32.641Z,100010.05
2023-03-14T09:12:36.910Z,99993.04
2023-03-14T09:13:40.513Z,100004.13
2023-03-14T09:14:43.820Z,100006.98
2023-03-14T09:15:50.251Z,100007.70
2023-03-14T09:16:53.947Z,100012.64
2023-03-14T09:17:58.827Z,100024.98
2023-03-14T09:19:01.066Z,100012.45
2023-03-14T09:20:08.085Z,100014.73
2023-03-14T09:21:12.615Z,100015.84
2023-03-14T09:22:15.882Z,100021.34
2023-03-14T09:23:21.155Z,100010.88
2023-03-14T09:24:24.590Z,100009.79
2023-03-14T09:25:28.720Z,100010.92
2023-03-14T09:26:31.590Z,100008.83
2023-03-14T09:27:36.731Z,100015.91
2023-03-14T09:28:40.141Z,100002.03
2023-03-14T09:29:43.543Z,100005.50
2023-03-14T09:30:46.211Z,100025.27
2023-03-14T09:31:50.973Z,100007.11
2023-03-14T09:32:56.503Z,100014.39
2023-03-14T09:34:00.111Z,100008.81
2023-03-14T09:35:03.472Z,100014.41
2023-03-14T09:36:07.675Z,100014.59
2023-03-14T09:37:11.107Z,99992.33
2023-03-14T09:38:15.787Z,99999.14
2023-03-14T09:39:19.065Z,100004.35
2023-03-14T09:40:24.330Z,100008.52
2023-03-14T09:41:29.620Z,99992.14
2023-03-14T09:42:33.123Z,99977.79
2023-03-14T09:43:36.199Z,99997.06
2023-03-14T09:44:41.834Z,99993.97
2023-03-14T09:45:48.541Z,99982.28
2023-03-14T09:46:57.168Z,99986.23
2023-03-14T09:48:00.547Z,99978.11
2023-03-14T09:49:04.792Z,99996.16
2023-03-14T09:50:11.164Z,99988.49
2023-03-14T09:51:16.129Z,99976.14
2023-03-14T09:52:22.514Z,99976.47
2023-03-14T09:53:28.013Z,99986.80
2023-03-14T09:54:35.073Z,99981.17
2023-03-14T09:55:39.117Z,99970.95
2023-03-14T09:56:41.548Z,99981.00
2023-03-14T09:57:46.577Z,99974.72
2023-03-14T09:58:51.389Z,99980.03
2023-03-14T09:59:55.816Z,99976.19
2023-03-14T10:01:02.979Z,99971.70
2023-03-14T10:02:20.064Z,99986.33
2023-03-14T10:03:27.959Z,99965.61
2023-03-14T10:04:31.124Z,99962.63
2023-03-14T10:05:34.752Z,99958.45
2023-03-14T10:06:37.860Z,99974.17
2023-03-14T10:07:41.351Z,99961.01
2023-03-14T10:08:45.683Z,99960.11
2023-03-14T10:09:50.028Z,99964.42
2023-03-14T10:10:55.265Z,99965.32
2023-03-14T10:12:08.983Z,99961.86
2023-03-14T10:13:16.410Z,99951.69
2023-03-14T10:14:22.858Z,99966.38
2023-03-14T10:15:33.532Z,99963.58
2023-03-14T10:16:44.007Z,99950.28
2023-03-14T10:17:51.336Z,99948.63
2023-03-14T10:18:55.770Z,99943.76
2023-03-14T10:20:01.694Z,99946.81
2023-03-14T10:21:09.468Z,99962.09
2023-03-14T10:22:14.377Z,99947.37
2023-03-14T10:23:19.037Z,99959.98
2023-03-14T10:24:24.480Z,99945.50
2023-03-14T10:25:29.870Z,99936.16
2023-03-14T10:26:36.541Z,99945.61
2023-03-14T10:27:40.028Z,99938.45
2023-03-14T10:28:49.909Z,99940.09
2023-03-14T10:29:59.732Z,99932.87
2023-03-14T10:31:03.609Z,99942.86
2023-03-14T10:32:08.225Z,99937.13
2023-03-14T10:33:12.680Z,99935.70
2023-03-14T10:34:20.780Z,99929.73
2023-03-14T10:35:24.987Z,99946.07
2023-03-14T10:36:32.511Z,99943.98
2023-03-14T10:37:37.880Z,99937.39
2023-03-14T10:38:41.281Z,99938.04
2023-03-14T10:39:48.551Z,99939.05
2023-03-14T10:40:55.524Z,99930.04
2023-03-14T10:42:07.145Z,99927.91
2023-03-14T10:43:13.710Z,99924.39
2023-03-14T10:44:18.850Z,99935.89
2023-03-14T10:45:39.393Z,99921.36
2023-03-14T10:46:41.914Z,99920.35
2023-03-14T10:48:10.882Z,99921.81
2023-03-14T10:49:15.590Z,99896.01
2023-03-14T10:50:32.194Z,99924.69
2023-03-14T10:51:34.529Z,99922.12
2023-03-14T10:53:00.397Z,99903.88
2023-03-14T10:53:51.870Z,99901.29
2023-03-14T10:55:01.840Z,99903.92
2023-03-14T10:56:06.619Z,99905.25
2023-03-14T10:57:10.220Z,99899.31
2023-03-14T10:58:24.283Z,99887.64
2023-03-14T10:59:29.674Z,99893.47
2023-03-14T11:00:34.671Z,99889.27
2023-03-14T11:01:55.970Z,99894.71
2023-03-14T11:03:13.081Z,99897.25
2023-03-14T11:04:18.227Z,99893.30
2023-03-14T11:05:35.657Z,99888.17
2023-03-14T11:06:44.478Z,99885.55
2023-03-14T11:07:47.944Z,99906.02
2023-03-14T11:09:00.486Z,99890.52
2023-03-14T11:10:08.042Z,99896.36
2023-03-14T11:11:14.297Z,99906.38
2023-03-14T11:12:35.818Z,99889.58
2023-03-14T11:13:46.542Z,99890.21
2023-03-14T11:14:52.252Z,99900.37
2023-03-14T11:16:11.608Z,99910.53
2023-03-14T11:17:19.123Z,99901.08
2023-03-14T11:18:30.345Z,99897.30
2023-03-14T11:19:53.052Z,99910.77
2023-03-14T11:21:07.746Z,99898.62
2023-03-14T11:22:13.134Z,99887.15
2023-03-14T11:23:18.089Z,99895.39
2023-03-14T11:24:23.494Z,99893.22
2023-03-14T11:25:40.587Z,99888.66
2023-03-14T11:26:47.549Z,99895.20
2023-03-14T11:27:52.695Z,99883.38
2023-03-14T11:28:59.889Z,99883.01
2023-03-14T11:30:19.243Z,99881.47
2023-03-14T11:31:32.045Z,99898.10
2023-03-14T11:32:40.375Z,99878.68
2023-03-14T11:33:46.559Z,99877.08
2023-03-14T11:34:51.747Z,99870.86
2023-03-14T11:36:15.663Z,99872.83
2023-03-14T11:37:26.661Z,99874.20
2023-03-14T11:38:47.898Z,99878.92
2023-03-14T11:39:52.313Z,99867.99
2023-03-14T11:40:58.037Z,99854.07
2023-03-14T11:42:04.821Z,99861.78
2023-03-14T11:43:24.688Z,99852.57
2023-03-14T11:44:31.010Z,99865.05
2023-03-14T11:45:36.997Z,99855.77
2023-03-14T11:46:42.275Z,99853.46
2023-03-14T11:47:48.447Z,99856.49
2023-03-14T11:49:08.027Z,99838.33
2023-03-14T11:50:16.870Z,99857.22
2023-03-14T11:51:22.231Z,99854.47
2023-03-14T11:52:27.624Z,99847.90
2023-03-14T11:53:41.922Z,99859.03
2023-03-14T11:54:48.744Z,99855.55
2023-03-14T11:55:52.909Z,99849.27
2023-03-14T11:56:56.990Z,99849.70
2023-03-14T11:58:11.988Z,99836.63
2023-03-14T11:59:23.430Z,99840.27
2023-03-14T12:00:26.107Z,99840.05
2023-03-14T12:01:30.221Z,99853.66
2023-03-14T12:02:36.308Z,99835.98
2023-03-14T12:03:50.545Z,99841.19
2023-03-14T12:05:04.842Z,99835.12
2023-03-14T12:06:19.897Z,99833.80
2023-03-14T12:07:26.081Z,99811.80
2023-03-14T12:08:34.084Z,99842.36
2023-03-14T12:09:36.857Z,99846.08
2023-03-14T12:10:44.640Z,99828.08
2023-03-14T12:11:53.419Z,99826.02
2023-03-14T12:12:57.125Z,99827.96
2023-03-14T12:14:03.609Z,99829.98
2023-03-14T12:15:07.357Z,99814.10
2023-03-14T12:16:23.859Z,99817.31
2023-03-14T12:17:29.384Z,99819.20
2023-03-14T12:18:39.534Z,99821.80
2023-03-14T12:19:45.368Z,99814.24
2023-03-14T12:20:53.163Z,99834.64
2023-03-14T12:21:58.340Z,99823.31
2023-03-14T12:23:06.013Z,99829.81
2023-03-14T12:24:12.374Z,99827.69
2023-03-14T12:25:17.715Z,99817.81
2023-03-14T12:26:25.730Z,99822.46
2023-03-14T12:27:48.494Z,99822.35
2023-03-14T12:28:56.662Z,99816.23
2023-03-14T12:30:03.748Z,99811.55
2023-03-14T12:31:24.173Z,99816.41
2023-03-14T12:32:28.146Z,99812.07
2023-03-14T12:33:33.041Z,99806.58
2023-03-14T12:34:37.790Z,99796.58
2023-03-14T12:35:46.954Z,99802.98
2023-03-14T12:36:52.312Z,99802.51
2023-03-14T12:37:57.989Z,99808.72
2023-03-14T12:39:14.474Z,99798.72
2023-03-14T12:40:23.861Z,99796.31
2023-03-14T12:41:32.136Z,99794.55
2023-03-14T12:42:49.544Z,99796.58
2023-03-14T12:43:53.026Z,99788.55
2023-03-14T12:44:59.156Z,99797.47
2023-03-14T12:46:09.809Z,99794.98
2023-03-14T12:47:22.385Z,99791.20